sensor_id;sensor_type;location;lat;lon;timestamp;pressure;altitude;pressure_sealevel;temperature;humidity
48606;BME280;8482;54.396;18.590;2023-08-06T18:59:17;99198.75;;;20.56;100.00
48606;BME280;8482;54.396;18.590;2023-08-06T19:01:47;99208.25;;;20.59;100.00
48606;BME280;8482;54.396;18.590;2023-08-06T19:04:13;99218.81;;;20.60;100.00
48606;BME280;8482;54.396;18.590;2023-08-06T19:06:38;99211.53;;;20.61;100.00
48606;BME280;8482;54.396;18.590;2023-08-06T19:09:04;99208.63;;;20.62;100.00
48606;BME280;8482;54.396;18.590;2023-08-06T19:11:30;99204.91;;;20.63;100.00
48606;BME280;8482;54.396;18.590;2023-08-06T19:13:56;99199.50;;;20.63;100.00
48606;BME280;8482;54.396;18.590;2023-08-06T19:16:22;99200.69;;;20.67;100.00
48606;BME280;8482;54.396;18.590;2023-08-06T19:18:48;99189.09;;;20.67;100.00
48606;BME280;8482;54.396;18.590;2023-08-06T19:21:14;99194.84;;;20.71;100.00
48606;BME280;8482;54.396;18.590;2023-08-06T19:23:40;99201.28;;;20.70;100.00
48606;BME280;8482;54.396;18.590;2023-08-06T19:26:06;99210.56;;;20.74;100.00
48606;BME280;8482;54.396;18.590;2023-08-06T19:28:32;99196.09;;;20.75;100.00
48606;BME280;8482;54.396;18.590;2023-08-06T19:30:59;99188.81;;;20.75;100.00
48606;BME280;8482;54.396;18.590;2023-08-06T19:33:25;99193.16;;;20.76;100.00
48606;BME280;8482;54.396;18.590;2023-08-06T19:35:53;99199.16;;;20.78;100.00
48606;BME280;8482;54.396;18.590;2023-08-06T19:38:21;99205.34;;;20.79;100.00
48606;BME280;8482;54.396;18.590;2023-08-06T19:40:48;99198.53;;;20.76;100.00
48606;BME280;8482;54.396;18.590;2023-08-06T19:43:14;99202.44;;;20.80;100.00
48606;BME280;8482;54.396;18.590;2023-08-06T19:45:47;99207.00;;;20.80;100.00
48606;BME280;8482;54.396;18.590;2023-08-06T19:48:13;99210.53;;;20.80;100.00
48606;BME280;8482;54.396;18.590;2023-08-06T19:50:39;99210.53;;;20.80;100.00
48606;BME280;8482;54.396;18.590;2023-08-06T19:53:05;99210.72;;;20.79;100.00
48606;BME280;8482;54.396;18.590;2023-08-06T19:55:31;99203.50;;;20.79;100.00
48606;BME280;8482;54.396;18.590;2023-08-06T19:57:57;99213.81;;;20.82;100.00
48606;BME280;8482;54.396;18.590;2023-08-06T20:00:22;99203.25;;;20.81;100.00
48606;BME280;8482;54.396;18.590;2023-08-06T20:02:49;99201.16;;;20.83;100.00
48606;BME280;8482;54.396;18.590;2023-08-06T20:05:15;99198.31;;;20.78;100.00
48606;BME280;8482;54.396;18.590;2023-08-06T20:07:41;99208.03;;;20.79;100.00
48606;BME280;8482;54.396;18.590;2023-08-06T20:10:08;99206.53;;;20.83;100.00
48606;BME280;8482;54.396;18.590;2023-08-06T20:12:34;99203.59;;;20.85;100.00
48606;BME280;8482;54.396;18.590;2023-08-06T20:14:59;99191.22;;;20.84;100.00
48606;BME280;8482;54.396;18.590;2023-08-06T20:17:25;99183.13;;;20.84;100.00
48606;BME280;8482;54.396;18.590;2023-08-06T20:19:51;99182.75;;;20.80;100.00
48606;BME280;8482;54.396;18.590;2023-08-06T20:22:17;99193.06;;;20.83;99.54
48606;BME280;8482;54.396;18.590;2023-08-06T20:24:43;99187.91;;;20.81;99.13
48606;BME280;8482;54.396;18.590;2023-08-06T20:27:08;99198.09;;;20.79;98.59
48606;BME280;8482;54.396;18.590;2023-08-06T20:29:35;99191.88;;;20.79;98.38
48606;BME280;8482;54.396;18.590;2023-08-06T20:32:01;99188.38;;;20.78;97.81
48606;BME280;8482;54.396;18.590;2023-08-06T20:34:27;99184.25;;;20.76;97.68
48606;BME280;8482;54.396;18.590;2023-08-06T20:36:53;99186.97;;;20.76;97.42
48606;BME280;8482;54.396;18.590;2023-08-06T20:39:19;99174.72;;;20.73;96.82
48606;BME280;8482;54.396;18.590;2023-08-06T20:41:45;99160.88;;;20.70;96.35
48606;BME280;8482;54.396;18.590;2023-08-06T20:44:10;99166.50;;;20.68;95.88
48606;BME280;8482;54.396;18.590;2023-08-06T20:46:36;99165.06;;;20.65;95.55
48606;BME280;8482;54.396;18.590;2023-08-06T20:49:02;99164.25;;;20.65;94.92
48606;BME280;8482;54.396;18.590;2023-08-06T20:51:28;99160.34;;;20.61;94.75
48606;BME280;8482;54.396;18.590;2023-08-06T20:53:53;99161.66;;;20.58;94.39
48606;BME280;8482;54.396;18.590;2023-08-06T20:56:19;99162.53;;;20.52;94.09
48606;BME280;8482;54.396;18.590;2023-08-06T20:58:46;99188.41;;;20.53;93.74
48606;BME280;8482;54.396;18.590;2023-08-06T21:01:11;99197.19;;;20.48;93.66
48606;BME280;8482;54.396;18.590;2023-08-06T21:03:37;99179.84;;;20.44;93.25
48606;BME280;8482;54.396;18.590;2023-08-06T21:06:05;99189.78;;;20.44;93.08
48606;BME280;8482;54.396;18.590;2023-08-06T21:08:34;99181.94;;;20.42;92.96
48606;BME280;8482;54.396;18.590;2023-08-06T21:11:02;99172.03;;;20.36;92.81
48606;BME280;8482;54.396;18.590;2023-08-06T21:13:29;99175.78;;;20.35;92.75
48606;BME280;8482;54.396;18.590;2023-08-06T21:16:03;99191.94;;;20.35;92.39
48606;BME280;8482;54.396;18.590;2023-08-06T21:18:34;99203.63;;;20.29;91.80
48606;BME280;8482;54.396;18.590;2023-08-06T21:21:01;99212.75;;;20.28;91.60
48606;BME280;8482;54.396;18.590;2023-08-06T21:23:28;99202.66;;;20.23;91.00
48606;BME280;8482;54.396;18.590;2023-08-06T21:26:04;99227.06;;;20.21;90.95
48606;BME280;8482;54.396;18.590;2023-08-06T21:28:32;99235.00;;;20.16;91.27
48606;BME280;8482;54.396;18.590;2023-08-06T21:31:09;99250.94;;;20.18;90.71
48606;BME280;8482;54.396;18.590;2023-08-06T21:33:35;99260.50;;;20.14;90.47
48606;BME280;8482;54.396;18.590;2023-08-06T21:36:03;99263.19;;;20.14;90.31
48606;BME280;8482;54.396;18.590;2023-08-06T21:38:39;99266.09;;;20.12;90.08
48606;BME280;8482;54.396;18.590;2023-08-06T21:41:09;99266.91;;;20.13;90.62
48606;BME280;8482;54.396;18.590;2023-08-06T21:43:43;99248.53;;;20.10;89.93
48606;BME280;8482;54.396;18.590;2023-08-06T21:46:12;99236.56;;;20.05;89.86
48606;BME280;8482;54.396;18.590;2023-08-06T21:48:41;99244.84;;;20.04;89.68
48606;BME280;8482;54.396;18.590;2023-08-06T21:51:09;99244.03;;;20.03;89.68
48606;BME280;8482;54.396;18.590;2023-08-06T21:53:37;99246.94;;;20.02;89.35
48606;BME280;8482;54.396;18.590;2023-08-06T21:56:09;99249.84;;;20.00;88.63
48606;BME280;8482;54.396;18.590;2023-08-06T21:58:44;99248.84;;;19.95;88.15
48606;BME280;8482;54.396;18.590;2023-08-06T22:01:12;99246.16;;;19.95;87.90
48606;BME280;8482;54.396;18.590;2023-08-06T22:03:39;99242.06;;;19.92;87.23
48606;BME280;8482;54.396;18.590;2023-08-06T22:06:07;99233.81;;;19.87;86.83
48606;BME280;8482;54.396;18.590;2023-08-06T22:08:34;99237.34;;;19.87;86.36
48606;BME280;8482;54.396;18.590;2023-08-06T22:11:00;99242.31;;;19.84;85.88
48606;BME280;8482;54.396;18.590;2023-08-06T22:13:26;99248.13;;;19.81;85.60
48606;BME280;8482;54.396;18.590;2023-08-06T22:15:52;99256.38;;;19.79;85.77
48606;BME280;8482;54.396;18.590;2023-08-06T22:18:18;99254.16;;;19.76;85.53
48606;BME280;8482;54.396;18.590;2023-08-06T22:20:44;99253.53;;;19.74;85.50
48606;BME280;8482;54.396;18.590;2023-08-06T22:23:11;99262.03;;;19.71;85.23
48606;BME280;8482;54.396;18.590;2023-08-06T22:25:37;99249.88;;;19.68;84.96
48606;BME280;8482;54.396;18.590;2023-08-06T22:28:03;99261.66;;;19.67;84.78
48606;BME280;8482;54.396;18.590;2023-08-06T22:30:29;99262.31;;;19.63;84.59
48606;BME280;8482;54.396;18.590;2023-08-06T22:32:55;99271.03;;;19.58;84.74
48606;BME280;8482;54.396;18.590;2023-08-06T22:35:21;99283.66;;;19.57;84.27
48606;BME280;8482;54.396;18.590;2023-08-06T22:37:48;99295.88;;;19.53;84.13
48606;BME280;8482;54.396;18.590;2023-08-06T22:40:15;99284.97;;;19.48;84.31
48606;BME280;8482;54.396;18.590;2023-08-06T22:42:42;99285.38;;;19.45;84.26
48606;BME280;8482;54.396;18.590;2023-08-06T22:45:13;99281.47;;;19.41;84.42
48606;BME280;8482;54.396;18.590;2023-08-06T22:47:40;99300.13;;;19.36;84.47
48606;BME280;8482;54.396;18.590;2023-08-06T22:50:08;99303.25;;;19.33;84.81
48606;BME280;8482;54.396;18.590;2023-08-06T22:52:35;99291.25;;;19.28;84.81
48606;BME280;8482;54.396;18.590;2023-08-06T22:55:02;99284.69;;;19.24;85.13
48606;BME280;8482;54.396;18.590;2023-08-06T22:57:28;99292.53;;;19.19;85.02
48606;BME280;8482;54.396;18.590;2023-08-06T22:59:54;99288.63;;;19.15;84.98
48606;BME280;8482;54.396;18.590;2023-08-06T23:02:20;99286.59;;;19.10;84.84
48606;BME280;8482;54.396;18.590;2023-08-06T23:04:47;99288.88;;;19.07;84.42
48606;BME280;8482;54.396;18.590;2023-08-06T23:07:12;99268.25;;;18.94;84.15
48606;BME280;8482;54.396;18.590;2023-08-06T23:09:38;99271.34;;;18.97;84.10
48606;BME280;8482;54.396;18.590;2023-08-06T23:12:05;99265.13;;;18.90;84.02
48606;BME280;8482;54.396;18.590;2023-08-06T23:14:31;99283.94;;;18.90;83.83
48606;BME280;8482;54.396;18.590;2023-08-06T23:16:56;99284.81;;;18.84;84.00
48606;BME280;8482;54.396;18.590;2023-08-06T23:19:22;99295.97;;;18.81;84.23
48606;BME280;8482;54.396;18.590;2023-08-06T23:21:48;99306.31;;;18.77;84.53
48606;BME280;8482;54.396;18.590;2023-08-06T23:24:14;99304.84;;;18.75;84.55
48606;BME280;8482;54.396;18.590;2023-08-06T23:26:40;99328.63;;;18.71;84.80
48606;BME280;8482;54.396;18.590;2023-08-06T23:29:06;99327.59;;;18.65;84.96
48606;BME280;8482;54.396;18.590;2023-08-06T23:31:32;99337.31;;;18.66;85.25
48606;BME280;8482;54.396;18.590;2023-08-06T23:33:57;99341.03;;;18.65;84.96
48606;BME280;8482;54.396;18.590;2023-08-06T23:36:23;99329.03;;;18.61;84.80
48606;BME280;8482;54.396;18.590;2023-08-06T23:38:49;99333.78;;;18.59;84.36
48606;BME280;8482;54.396;18.590;2023-08-06T23:41:17;99340.22;;;18.58;83.98
48606;BME280;8482;54.396;18.590;2023-08-06T23:43:43;99346.63;;;18.57;83.32
48606;BME280;8482;54.396;18.590;2023-08-06T23:46:11;99331.56;;;18.49;82.64
48606;BME280;8482;54.396;18.590;2023-08-06T23:48:36;99350.13;;;18.51;81.82
48606;BME280;8482;54.396;18.590;2023-08-06T23:51:02;99340.03;;;18.46;81.05
48606;BME280;8482;54.396;18.590;2023-08-06T23:53:28;99339.22;;;18.39;80.82
48606;BME280;8482;54.396;18.590;2023-08-06T23:55:54;99338.78;;;18.35;80.86
48606;BME280;8482;54.396;18.590;2023-08-06T23:58:19;99329.91;;;18.28;80.92
